createdAt,value
2023-01-28T00:01:29.821Z,70.99
2023-01-28T00:06:35.799Z,71.12
2023-01-28T00:11:43.786Z,71.11
2023-01-28T00:16:48.056Z,71.46
2023-01-28T00:21:56.924Z,71.47
2023-01-28T00:26:59.741Z,71.43
2023-01-28T00:32:02.623Z,71.31
2023-01-28T00:37:27.859Z,71.41
2023-01-28T00:42:46.767Z,70.84
2023-01-28T00:47:49.268Z,71.11
2023-01-28T00:52:55.092Z,71.12
2023-01-28T00:58:17.661Z,71.11
2023-01-28T01:03:26.367Z,71.62
2023-01-28T01:08:41.099Z,71.78
2023-01-28T01:13:58.130Z,71.59
2023-01-28T01:19:01.484Z,71.66
2023-01-28T01:24:07.008Z,71.66
2023-01-28T01:29:09.944Z,71.41
2023-01-28T01:34:19.762Z,70.75
2023-01-28T01:39:24.701Z,70.16
2023-01-28T01:45:18.620Z,69.90
2023-01-28T01:50:36.688Z,69.62
2023-01-28T01:55:43.557Z,68.92
2023-01-28T02:00:49.083Z,68.84
2023-01-28T02:05:54.983Z,68.89
2023-01-28T02:11:05.401Z,69.32
2023-01-28T02:16:09.399Z,69.14
2023-01-28T02:21:51.230Z,69.08
2023-01-28T02:27:25.300Z,69.21
2023-01-28T02:32:54.191Z,69.32
2023-01-28T02:38:19.476Z,69.29
2023-01-28T02:43:40.352Z,69.29
2023-01-28T02:48:43.103Z,69.33
2023-01-28T02:54:12.910Z,69.40
2023-01-28T02:59:31.398Z,69.24
2023-01-28T03:05:26.687Z,69.45
2023-01-28T03:10:29.786Z,69.80
2023-01-28T03:16:00.047Z,69.78
2023-01-28T03:21:43.933Z,69.54
2023-01-28T03:27:33.752Z,69.32
2023-01-28T03:33:06.526Z,69.40
2023-01-28T03:38:23.791Z,69.26
2023-01-28T03:43:42.829Z,69.08
2023-01-28T03:48:47.960Z,68.85
2023-01-28T03:53:54.328Z,68.62
2023-01-28T03:59:08.373Z,68.71
2023-01-28T04:04:22.900Z,68.68
2023-01-28T04:09:29.770Z,68.33
2023-01-28T04:14:53.225Z,67.87
2023-01-28T04:20:06.952Z,67.66
2023-01-28T04:25:10.148Z,67.53
2023-01-28T04:30:12.863Z,67.25
2023-01-28T04:35:32.750Z,67.52
2023-01-28T04:41:24.387Z,67.67
2023-01-28T04:46:33.275Z,67.29
2023-01-28T04:51:49.143Z,67.84
2023-01-28T04:57:11.139Z,67.71
2023-01-28T05:02:19.086Z,67.25
2023-01-28T05:07:35.876Z,67.53
2023-01-28T05:12:50.223Z,67.68
2023-01-28T05:18:00.905Z,68.01
2023-01-28T05:23:16.391Z,68.11
2023-01-28T05:28:29.363Z,67.80
2023-01-28T05:33:42.606Z,67.90
2023-01-28T05:38:47.570Z,67.59
2023-01-28T05:43:50.613Z,67.59
2023-01-28T05:49:08.640Z,67.65
2023-01-28T05:54:58.613Z,67.73
2023-01-28T06:00:16.177Z,67.73
2023-01-28T06:05:32.034Z,67.65
2023-01-28T06:10:47.448Z,67.57
2023-01-28T06:15:54.995Z,67.65
2023-01-28T06:21:44.018Z,68.45
2023-01-28T06:26:47.825Z,69.58
2023-01-28T06:31:53.493Z,69.94
2023-01-28T06:37:05.090Z,70.24
2023-01-28T06:42:09.678Z,70.40
2023-01-28T06:47:12.344Z,70.14
2023-01-28T06:52:15.269Z,69.96
2023-01-28T06:57:17.764Z,70.22
2023-01-28T07:02:20.652Z,70.36
2023-01-28T07:07:31.843Z,69.68
2023-01-28T07:12:37.206Z,69.78
2023-01-28T07:17:43.267Z,69.70
2023-01-28T07:22:56.126Z,69.66
2023-01-28T07:27:58.608Z,69.03
2023-01-28T07:33:01.686Z,69.09
2023-01-28T07:38:06.443Z,68.88
2023-01-28T07:43:14.359Z,68.62
2023-01-28T07:48:24.251Z,67.77
2023-01-28T07:53:34.419Z,67.25
2023-01-28T07:58:39.354Z,67.27
2023-01-28T08:03:46.923Z,66.97
2023-01-28T08:08:51.548Z,67.14
2023-01-28T08:13:53.765Z,66.47
2023-01-28T08:18:58.855Z,66.76
2023-01-28T08:24:03.324Z,66.37
2023-01-28T08:29:06.327Z,64.87
2023-01-28T08:34:14.470Z,65.11
2023-01-28T08:39:25.849Z,65.76
2023-01-28T08:44:37.043Z,65.58
2023-01-28T08:49:42.650Z,64.77
2023-01-28T08:54:45.124Z,65.05
2023-01-28T08:59:53.256Z,64.81
2023-01-28T09:04:58.616Z,64.43
2023-01-28T09:10:01.243Z,63.60
2023-01-28T09:15:05.108Z,62.65
2023-01-28T09:20:33.910Z,63.81
2023-01-28T09:25:37.049Z,62.93
2023-01-28T09:30:42.867Z,62.05
2023-01-28T09:35:45.556Z,61.86
2023-01-28T09:40:51.428Z,62.10
2023-01-28T09:45:58.236Z,61.74
2023-01-28T09:51:01.863Z,60.87
2023-01-28T09:56:14.395Z,61.78
2023-01-28T10:01:19.973Z,61.67
2023-01-28T10:06:51.081Z,61.35
2023-01-28T10:12:37.374Z,61.12
2023-01-28T10:17:46.130Z,59.07
2023-01-28T10:23:02.712Z,61.10
2023-01-28T10:28:21.091Z,61.84
2023-01-28T10:33:28.969Z,62.22
2023-01-28T10:38:31.923Z,61.28
2023-01-28T10:43:37.676Z,61.00
2023-01-28T10:48:47.360Z,60.40
2023-01-28T10:53:49.682Z,59.18
2023-01-28T10:59:03.169Z,60.08
2023-01-28T11:04:07.579Z,60.99
2023-01-28T11:09:22.401Z,61.27
2023-01-28T11:14:28.104Z,61.52
2023-01-28T11:19:39.019Z,60.43
2023-01-28T11:24:43.147Z,60.36
2023-01-28T11:29:46.543Z,58.19
2023-01-28T11:34:51.588Z,58.65
2023-01-28T11:40:24.313Z,59.85
2023-01-28T11:45:42.426Z,60.02
2023-01-28T11:50:58.361Z,61.21
2023-01-28T11:56:45.485Z,61.43
2023-01-28T12:02:21.489Z,61.37
2023-01-28T12:07:36.094Z,61.34
2023-01-28T12:12:45.703Z,61.73
2023-01-28T12:17:56.760Z,62.15
2023-01-28T12:23:24.609Z,61.41
2023-01-28T12:28:41.734Z,62.19
2023-01-28T12:34:38.704Z,61.70
2023-01-28T12:40:33.693Z,61.54
2023-01-28T12:45:51.849Z,60.39
2023-01-28T12:51:02.423Z,60.33
2023-01-28T12:56:16.944Z,59.56
2023-01-28T13:01:25.861Z,59.71
2023-01-28T13:06:33.748Z,60.91
2023-01-28T13:11:37.164Z,62.16
2023-01-28T13:16:39.579Z,63.23
2023-01-28T13:21:49.156Z,63.07
2023-01-28T13:26:55.068Z,62.94
2023-01-28T13:32:03.391Z,62.78
2023-01-28T13:37:28.549Z,62.63
2023-01-28T13:42:35.382Z,62.20
2023-01-28T13:47:41.022Z,62.47
2023-01-28T13:52:50.716Z,62.69
2023-01-28T13:58:31.619Z,63.11
2023-01-28T14:03:58.700Z,63.27
2023-01-28T14:09:31.914Z,63.61
2023-01-28T14:15:16.582Z,63.75
2023-01-28T14:20:32.735Z,64.34
2023-01-28T14:26:00.055Z,64.69
2023-01-28T14:31:32.918Z,64.93
2023-01-28T14:36:40.935Z,65.28
2023-01-28T14:41:48.267Z,65.43
2023-01-28T14:47:17.908Z,65.57
2023-01-28T14:52:25.429Z,66.17
2023-01-28T14:57:44.868Z,66.52
2023-01-28T15:02:46.909Z,67.24
2023-01-28T15:07:49.725Z,67.70
2023-01-28T15:13:00.296Z,68.21
2023-01-28T15:18:25.508Z,68.61
2023-01-28T15:23:36.793Z,69.39
2023-01-28T15:28:40.666Z,69.72
2023-01-28T15:33:42.954Z,69.28
2023-01-28T15:38:45.189Z,70.08
2023-01-28T15:43:49.755Z,70.79
2023-01-28T15:49:04.028Z,71.13
2023-01-28T15:54:11.099Z,71.81
2023-01-28T15:59:16.136Z,72.59
2023-01-28T16:04:30.025Z,73.16
2023-01-28T16:09:34.726Z,74.24
2023-01-28T16:14:49.702Z,75.37
2023-01-28T16:19:59.114Z,76.55
2023-01-28T16:25:01.979Z,77.08
2023-01-28T16:30:06.094Z,76.17
2023-01-28T16:35:23.270Z,77.01
2023-01-28T16:40:25.613Z,77.27
2023-01-28T16:45:27.860Z,78.33
2023-01-28T16:50:32.682Z,78.52
2023-01-28T16:55:35.224Z,78.24
2023-01-28T17:00:37.314Z,78.04
2023-01-28T17:05:39.493Z,78.84
2023-01-28T17:10:41.551Z,79.02
2023-01-28T17:15:43.477Z,78.81
2023-01-28T17:20:45.488Z,78.85
2023-01-28T17:25:47.608Z,79.24
2023-01-28T17:30:49.987Z,79.14
2023-01-28T17:35:52.836Z,79.48
2023-01-28T17:40:54.986Z,79.55
2023-01-28T17:45:57.250Z,79.73
2023-01-28T17:50:59.691Z,79.90
2023-01-28T17:56:01.634Z,80.30
2023-01-28T18:01:10.192Z,80.48
2023-01-28T18:06:14.692Z,81.26
2023-01-28T18:11:21.557Z,81.56
2023-01-28T18:16:24.845Z,81.69
2023-01-28T18:21:51.774Z,81.78
2023-01-28T18:26:59.758Z,81.53
2023-01-28T18:32:03.229Z,81.15
2023-01-28T18:37:07.653Z,81.36
2023-01-28T18:42:10.020Z,81.45
2023-01-28T18:47:12.092Z,81.41
2023-01-28T18:52:14.677Z,81.70
2023-01-28T18:57:26.068Z,82.14
2023-01-28T19:02:28.622Z,82.13
2023-01-28T19:07:31.725Z,82.34
2023-01-28T19:12:37.158Z,82.37
2023-01-28T19:17:39.597Z,81.94
2023-01-28T19:22:44.402Z,81.63
2023-01-28T19:27:46.420Z,81.50
2023-01-28T19:32:48.636Z,81.62
2023-01-28T19:37:51.017Z,81.60
2023-01-28T19:42:53.966Z,81.47
2023-01-28T19:47:59.323Z,81.44
2023-01-28T19:53:01.493Z,81.39
2023-01-28T19:58:04.126Z,81.59
2023-01-28T20:03:08.321Z,81.66
2023-01-28T20:08:10.886Z,81.70
2023-01-28T20:13:16.153Z,81.57
2023-01-28T20:18:18.983Z,81.32
2023-01-28T20:23:36.081Z,81.15
2023-01-28T20:28:41.947Z,81.08
2023-01-28T20:33:49.844Z,80.86
2023-01-28T20:38:52.044Z,80.88
2023-01-28T20:43:55.058Z,80.82
2023-01-28T20:48:59.326Z,80.71
2023-01-28T20:54:02.014Z,80.75
2023-01-28T20:59:06.145Z,80.78
2023-01-28T21:04:10.763Z,80.64
2023-01-28T21:09:13.086Z,80.46
2023-01-28T21:14:17.223Z,80.47
2023-01-28T21:19:21.847Z,80.59
2023-01-28T21:24:24.236Z,80.87
2023-01-28T21:29:26.830Z,80.77
2023-01-28T21:34:33.261Z,80.40
2023-01-28T21:39:35.810Z,80.28
2023-01-28T21:44:37.710Z,80.30
2023-01-28T21:49:40.468Z,80.05
2023-01-28T21:54:45.492Z,80.16
2023-01-28T21:59:47.801Z,80.36
2023-01-28T22:04:50.571Z,80.09
2023-01-28T22:09:58.214Z,78.93
2023-01-28T22:15:10.625Z,78.06
2023-01-28T22:20:13.887Z,78.31
2023-01-28T22:25:16.894Z,79.00
2023-01-28T22:30:19.214Z,79.15
2023-01-28T22:35:24.094Z,78.83
2023-01-28T22:40:26.065Z,78.77
2023-01-28T22:45:28.919Z,79.14
2023-01-28T22:50:31.255Z,78.91
2023-01-28T22:55:33.743Z,78.89
2023-01-28T23:00:35.862Z,78.99
2023-01-28T23:05:38.549Z,78.99
2023-01-28T23:10:47.133Z,79.13
2023-01-28T23:16:08.981Z,79.16
2023-01-28T23:21:40.609Z,79.25
2023-01-28T23:26:42.545Z,79.21
2023-01-28T23:31:47.415Z,79.07
2023-01-28T23:36:50.617Z,78.82
2023-01-28T23:41:53.269Z,78.63
2023-01-28T23:46:56.343Z,77.95
2023-01-28T23:51:58.645Z,77.79
2023-01-28T23:57:01.195Z,77.96
